Time;durP1;ratioP1;P1;durP2;ratioP2;P2;SDS_P1;SDS_P2;PMS_P1;PMS_P2;Temp;Humidity;BMP_temperature;BMP_pressure;BME280_temperature;BME280_humidity;BME280_pressure;Samples;Min_cycle;Max_cycle;Signal;HPM_P1;HPM_P2
2022/10/28 00:04:55;;;;;;;41.10;23.30;;;;;;;11.75;63.68;100189.85;227273;1233;140327;-66
2022/10/28 00:09:58;;;;;;;39.00;23.50;;;;;;;11.71;63.51;100187.94;227286;1234;139821;-64
2022/10/28 00:15:02;;;;;;;35.80;23.20;;;;;;;11.65;63.52;100184.45;227197;1236;139541;-64
2022/10/28 00:20:06;;;;;;;38.00;22.50;;;;;;;11.59;63.37;100191.66;227340;1234;141206;-63
2022/10/28 00:25:09;;;;;;;36.00;23.00;;;;;;;11.57;63.76;100188.40;227283;1236;141426;-63
2022/10/28 00:30:12;;;;;;;37.70;22.50;;;;;;;11.59;63.43;100179.23;226183;1243;141274;-65
2022/10/28 00:35:15;;;;;;;38.90;21.80;;;;;;;11.64;63.73;100176.89;227325;1234;140351;-61
2022/10/28 00:40:18;;;;;;;35.30;22.90;;;;;;;11.62;63.55;100170.91;226231;1244;139737;-63
2022/10/28 00:45:21;;;;;;;38.70;23.50;;;;;;;11.56;63.56;100165.34;226341;1244;139578;-64
2022/10/28 00:50:44;;;;;;;40.80;22.30;;;;;;;11.48;63.34;100156.11;226247;1243;139681;-61
2022/10/28 00:55:48;;;;;;;39.70;22.40;;;;;;;11.40;63.46;100158.46;226296;1243;139223;-62
2022/10/28 01:00:51;;;;;;;39.90;22.80;;;;;;;11.29;63.28;100156.49;225965;1242;140135;-64
2022/10/28 01:05:56;;;;;;;36.00;23.30;;;;;;;11.22;63.70;100151.30;226153;1242;139200;-64
2022/10/28 01:11:12;;;;;;;35.20;22.80;;;;;;;11.15;63.43;100149.14;226082;1245;139475;-64
2022/10/28 01:16:28;;;;;;;33.30;21.60;;;;;;;11.12;63.30;100137.02;225945;1241;139782;-62
2022/10/28 01:21:34;;;;;;;32.10;21.00;;;;;;;11.12;63.33;100137.20;225838;1240;141091;-66
2022/10/28 01:26:59;;;;;;;33.60;21.00;;;;;;;11.13;63.44;100137.01;227303;1237;139700;-64
2022/10/28 01:32:47;;;;;;;36.10;21.10;;;;;;;11.08;63.57;100133.13;227266;1233;139364;-66
2022/10/28 01:37:55;;;;;;;31.50;20.10;;;;;;;10.98;63.32;100129.89;226156;1239;140106;-60
2022/10/28 01:43:21;;;;;;;29.10;19.70;;;;;;;10.89;63.22;100130.83;226206;1240;140846;-62
2022/10/28 01:48:46;;;;;;;27.90;19.20;;;;;;;10.85;63.58;100123.38;226158;1241;139566;-63
2022/10/28 01:53:54;;;;;;;30.00;19.80;;;;;;;10.77;63.30;100119.11;226246;1244;140346;-73
2022/10/28 01:59:00;;;;;;;28.30;18.90;;;;;;;10.70;63.45;100116.45;227375;1237;139986;-67
2022/10/28 02:04:03;;;;;;;29.20;19.70;;;;;;;10.66;63.65;100118.92;227189;1234;139619;-67
2022/10/28 02:09:18;;;;;;;30.80;19.90;;;;;;;10.68;63.63;100111.20;226058;1238;142305;-70
2022/10/28 02:14:45;;;;;;;32.20;20.20;;;;;;;10.70;63.41;100102.06;226281;1237;141985;-64
2022/10/28 02:19:59;;;;;;;30.60;19.60;;;;;;;10.68;63.59;100096.48;227428;1237;139557;-65
2022/10/28 02:25:15;;;;;;;36.00;20.40;;;;;;;10.69;63.66;100085.41;227237;1233;140404;-66
2022/10/28 02:30:32;;;;;;;32.70;20.50;;;;;;;10.62;63.38;100082.19;226226;1245;140081;-61
2022/10/28 02:35:44;;;;;;;36.20;20.30;;;;;;;10.53;63.33;100075.66;226180;1244;139949;-61
2022/10/28 02:40:52;;;;;;;30.40;20.30;;;;;;;10.50;63.45;100071.20;226231;1238;141287;-63
2022/10/28 02:46:02;;;;;;;32.30;19.50;;;;;;;10.45;63.31;100069.30;226307;1240;139903;-64
2022/10/28 02:51:10;;;;;;;;;;;;;;;10.38;62.97;100074.56;226210;1245;139202;-63
2022/10/28 02:56:16;;;;;;;26.60;18.20;;;;;;;10.29;63.30;100082.06;226566;1240;125612;-62
2022/10/28 03:01:19;;;;;;;29.70;18.50;;;;;;;10.25;63.69;100075.29;226263;1245;140450;-62
2022/10/28 03:06:23;;;;;;;29.80;18.10;;;;;;;10.26;63.39;100068.86;225851;1236;141083;-64
2022/10/28 03:11:27;;;;;;;33.20;19.70;;;;;;;10.28;63.41;100064.88;226938;1234;140483;-63
2022/10/28 03:16:30;;;;;;;30.10;18.40;;;;;;;10.33;63.56;100062.53;226037;1243;139753;-65
2022/10/28 03:21:33;;;;;;;26.10;17.40;;;;;;;10.31;63.38;100066.54;226176;1244;139675;-62
2022/10/28 03:26:36;;;;;;;29.80;18.50;;;;;;;10.27;63.67;100065.65;226259;1237;141009;-63
2022/10/28 03:31:39;;;;;;;100.00;62.40;;;;;;;10.23;63.38;100059.23;226137;1245;139882;-66
2022/10/28 03:36:42;;;;;;;32.00;20.10;;;;;;;10.25;63.74;100051.68;226081;1245;139988;-63
2022/10/28 03:41:45;;;;;;;25.20;18.10;;;;;;;10.30;64.02;100061.97;225984;1232;140452;-63
2022/10/28 03:46:48;;;;;;;27.40;17.40;;;;;;;10.27;63.48;100064.77;226025;1243;140070;-62
2022/10/28 03:51:51;;;;;;;28.30;17.90;;;;;;;10.20;63.64;100060.09;226117;1242;139839;-63
2022/10/28 03:56:54;;;;;;;27.60;17.90;;;;;;;10.14;63.45;100051.98;226058;1241;140107;-66
2022/10/28 04:01:57;;;;;;;58.60;37.10;;;;;;;10.18;63.93;100052.73;226227;1241;140149;-66
2022/10/28 04:07:00;;;;;;;25.20;16.70;;;;;;;10.26;64.09;100042.65;226191;1242;140829;-61
2022/10/28 04:12:04;;;;;;;32.50;17.40;;;;;;;10.27;63.87;100039.04;227015;1222;139617;-67
2022/10/28 04:17:12;;;;;;;27.70;16.90;;;;;;;10.20;63.93;100043.75;226122;1244;139704;-61
2022/10/28 04:22:15;;;;;;;28.10;17.90;;;;;;;10.15;63.88;100047.88;227252;1235;140390;-62
2022/10/28 04:27:18;;;;;;;31.10;17.50;;;;;;;10.13;63.79;100043.36;226778;1234;139521;-63
2022/10/28 04:32:22;;;;;;;26.30;15.90;;;;;;;10.09;63.71;100036.98;224371;1237;140128;-65
2022/10/28 04:37:25;;;;;;;102.40;69.00;;;;;;;10.03;63.79;100031.38;223999;1237;141024;-64
2022/10/28 04:42:29;;;;;;;32.90;20.90;;;;;;;10.02;64.27;100024.34;224008;1237;140791;-66
2022/10/28 04:47:33;;;;;;;35.40;17.00;;;;;;;10.00;64.10;100018.92;223900;1237;139564;-67
2022/10/28 04:52:37;;;;;;;55.50;19.00;;;;;;;9.95;64.08;100013.30;224096;1236;139898;-67
2022/10/28 04:57:41;;;;;;;39.10;18.40;;;;;;;9.93;63.86;100016.39;223890;1233;140064;-65
2022/10/28 05:02:44;;;;;;;43.60;19.10;;;;;;;9.90;64.48;100020.61;224131;1237;139489;-62
2022/10/28 05:07:48;;;;;;;50.00;25.20;;;;;;;9.96;64.75;100011.65;223910;1237;140038;-65
2022/10/28 05:12:52;;;;;;;42.90;18.90;;;;;;;9.98;64.43;100010.02;224292;1235;139737;-64
2022/10/28 05:17:56;;;;;;;36.10;19.20;;;;;;;9.93;64.21;100014.09;224208;1237;139213;-63
2022/10/28 05:23:00;;;;;;;28.50;17.80;;;;;;;9.89;64.42;100017.80;224113;1237;140232;-69
2022/10/28 05:28:04;;;;;;;33.80;18.40;;;;;;;9.85;64.28;100019.07;224020;1233;140323;-67
2022/10/28 05:33:09;;;;;;;29.50;17.60;;;;;;;9.75;64.27;100019.69;224021;1237;140250;-69
2022/10/28 05:38:13;;;;;;;;;;;;;;;9.67;64.30;100018.58;224043;1240;141164;-68
2022/10/28 05:43:16;;;;;;;32.70;18.10;;;;;;;9.60;64.53;100014.27;224265;1232;127745;-66
2022/10/28 05:48:20;;;;;;;34.60;18.80;;;;;;;9.57;64.85;100017.23;224069;1232;139753;-67
2022/10/28 05:53:24;;;;;;;51.50;32.20;;;;;;;9.63;64.93;100015.58;224135;1229;140114;-67
2022/10/28 05:58:27;;;;;;;36.10;18.70;;;;;;;9.74;64.90;100018.66;223890;1236;140174;-66
2022/10/28 06:03:31;;;;;;;30.10;18.50;;;;;;;9.78;64.91;100020.41;224540;1234;139967;-71
2022/10/28 06:08:34;;;;;;;62.30;36.30;;;;;;;9.84;65.44;100009.71;224662;1233;139264;-72
2022/10/28 06:13:39;;;;;;;35.20;19.70;;;;;;;9.94;65.50;100006.59;223965;1237;140154;-72
2022/10/28 06:18:44;;;;;;;38.00;18.90;;;;;;;10.00;65.02;100002.09;223768;1237;139853;-71
2022/10/28 06:23:47;;;;;;;35.40;18.90;;;;;;;10.02;65.32;100013.02;224137;1235;139250;-62
2022/10/28 06:28:51;;;;;;;36.80;19.50;;;;;;;10.02;65.20;100006.28;223997;1237;140360;-63
2022/10/28 06:33:56;;;;;;;42.60;19.30;;;;;;;10.03;65.65;100006.95;224280;1237;139990;-71
2022/10/28 06:39:00;;;;;;;38.50;18.60;;;;;;;10.06;65.22;100016.73;224170;1236;140308;-68
2022/10/28 06:44:04;;;;;;;41.40;17.90;;;;;;;10.15;65.64;100012.80;224045;1237;140050;-75
2022/10/28 06:49:09;;;;;;;35.10;18.80;;;;;;;10.28;65.72;100017.36;224019;1236;142830;-74
2022/10/28 06:54:12;;;;;;;36.30;17.90;;;;;;;10.40;66.06;100018.75;224076;1237;140293;-74
2022/10/28 06:59:16;;;;;;;115.00;67.00;;;;;;;10.49;65.87;100021.91;224031;1237;140156;-65
2022/10/28 07:04:20;;;;;;;31.50;19.50;;;;;;;10.60;66.27;100025.33;224401;1237;140679;-65
2022/10/28 07:09:25;;;;;;;29.20;17.50;;;;;;;10.69;66.25;100021.70;224241;1233;139680;-67
2022/10/28 07:14:29;;;;;;;29.00;18.10;;;;;;;10.77;66.10;100026.27;223947;1237;140096;-68
2022/10/28 07:19:33;;;;;;;43.60;18.60;;;;;;;10.90;66.56;100033.30;224266;1237;139502;-64
2022/10/28 07:24:37;;;;;;;19.80;11.40;;;;;;;11.05;66.92;100025.50;223821;1227;139685;-63
2022/10/28 07:29:41;;;;;;;120.50;81.40;;;;;;;11.29;67.06;100025.03;223997;1235;140158;-65
2022/10/28 07:34:46;;;;;;;40.10;22.30;;;;;;;11.59;67.53;100023.15;223783;1228;140768;-67
2022/10/28 07:39:50;;;;;;;22.00;10.30;;;;;;;11.88;67.62;100022.95;223791;1237;140664;-67
2022/10/28 07:44:55;;;;;;;16.70;9.00;;;;;;;12.20;68.22;100018.83;224260;1236;139466;-66
2022/10/28 07:49:58;;;;;;;16.40;8.00;;;;;;;12.50;68.29;100019.20;224293;1237;141124;-68
2022/10/28 07:55:06;;;;;;;16.20;8.60;;;;;;;12.77;68.24;100021.83;224709;1234;139084;-68
2022/10/28 08:00:13;;;;;;;63.90;44.10;;;;;;;12.99;67.87;100018.97;223693;1237;139702;-67
2022/10/28 08:05:17;;;;;;;19.40;12.30;;;;;;;13.18;67.90;100014.29;223734;1237;140491;-65
2022/10/28 08:10:21;;;;;;;15.30;8.00;;;;;;;13.44;67.68;100015.52;223801;1236;139765;-67
2022/10/28 08:15:27;;;;;;;16.70;7.90;;;;;;;13.68;67.49;100016.08;223972;1236;140061;-67
2022/10/28 08:20:32;;;;;;;18.50;8.20;;;;;;;13.88;67.20;100015.10;224180;1236;139364;-68
2022/10/28 08:25:36;;;;;;;18.20;8.70;;;;;;;14.07;66.97;100006.05;224309;1236;139536;-66
2022/10/28 08:30:39;;;;;;;13.60;8.20;;;;;;;14.21;66.57;100002.88;224577;1236;139105;-67
2022/10/28 08:35:59;;;;;;;166.70;109.90;;;;;;;14.42;66.86;99996.61;224257;1237;139680;-66
2022/10/28 08:41:14;;;;;;;13.90;7.10;;;;;;;14.67;66.78;99989.35;224137;1236;140146;-66
2022/10/28 08:46:31;;;;;;;10.90;6.80;;;;;;;14.89;66.32;99991.13;224608;1234;140485;-66
2022/10/28 08:51:52;;;;;;;17.80;8.00;;;;;;;15.07;66.08;99988.52;224362;1234;139889;-65
2022/10/28 08:57:00;;;;;;;19.80;7.70;;;;;;;15.26;65.94;99984.27;223915;1237;139987;-65
2022/10/28 09:02:25;;;;;;;16.20;8.40;;;;;;;15.43;65.99;99978.27;224196;1234;140840;-66
2022/10/28 09:07:28;;;;;;;12.30;7.70;;;;;;;15.59;65.70;99977.92;223991;1235;139164;-66
2022/10/28 09:12:49;;;;;;;11.10;6.50;;;;;;;15.71;65.38;99977.66;223717;1236;139051;-67
2022/10/28 09:17:56;;;;;;;10.90;7.00;;;;;;;15.80;64.98;99981.16;224126;1237;140064;-73
2022/10/28 09:23:17;;;;;;;13.10;7.60;;;;;;;15.91;64.82;99982.39;223586;1236;139349;-68
2022/10/28 09:28:27;;;;;;;39.30;28.00;;;;;;;16.05;64.71;99982.09;223883;1236;139182;-72
2022/10/28 09:33:34;;;;;;;16.40;5.80;;;;;;;16.26;64.74;99974.88;223742;1228;141206;-72
2022/10/28 09:38:38;;;;;;;12.40;6.30;;;;;;;16.46;64.58;99968.64;223982;1237;139946;-71
2022/10/28 09:43:49;;;;;;;10.00;5.50;;;;;;;16.65;64.42;99965.70;223973;1236;139871;-73
2022/10/28 09:48:57;;;;;;;12.00;5.60;;;;;;;16.81;64.26;99965.26;223759;1237;141360;-74
2022/10/28 09:54:01;;;;;;;10.00;5.50;;;;;;;16.97;64.16;99957.48;223897;1237;139725;-73
2022/10/28 09:59:06;;;;;;;16.40;10.60;;;;;;;17.10;63.54;99957.40;223880;1235;141438;-71
2022/10/28 10:04:21;;;;;;;13.50;7.30;;;;;;;17.26;63.66;99962.14;223871;1237;142603;-72
2022/10/28 10:09:30;;;;;;;10.90;6.10;;;;;;;17.38;63.34;99953.48;223691;1236;139848;-71
2022/10/28 10:14:48;;;;;;;13.60;6.90;;;;;;;17.48;63.21;99952.73;223805;1237;139936;-72
2022/10/28 10:20:00;;;;;;;9.00;5.50;;;;;;;17.63;62.95;99950.55;223722;1235;138917;-74
2022/10/28 10:25:29;;;;;;;14.30;6.20;;;;;;;17.79;62.87;99951.69;223885;1235;139050;-69
2022/10/28 10:30:37;;;;;;;13.30;6.20;;;;;;;17.95;62.61;99951.17;224372;1226;139798;-72
2022/10/28 10:35:41;;;;;;;10.20;6.40;;;;;;;18.13;62.64;99947.05;224293;1237;139507;-72
2022/10/28 10:40:49;;;;;;;11.50;6.00;;;;;;;18.30;62.50;99942.06;224018;1230;139152;-70
2022/10/28 10:46:02;;;;;;;10.80;6.00;;;;;;;18.46;62.19;99926.25;223888;1229;139347;-71
2022/10/28 10:51:22;;;;;;;12.30;6.50;;;;;;;18.59;61.91;99923.78;224152;1234;139238;-72
2022/10/28 10:56:28;;;;;;;77.40;48.80;;;;;;;18.67;61.41;99924.52;224202;1235;139201;-71
2022/10/28 11:01:37;;;;;;;10.80;5.90;;;;;;;18.75;61.21;99923.35;224152;1233;139780;-71
2022/10/28 11:06:48;;;;;;;13.00;5.40;;;;;;;18.85;61.10;99919.48;224018;1235;140268;-74
2022/10/28 11:11:55;;;;;;;15.90;5.80;;;;;;;18.96;60.89;99914.64;224006;1236;139791;-68
2022/10/28 11:17:01;;;;;;;9.50;4.90;;;;;;;19.04;60.66;99913.04;223753;1235;140457;-69
2022/10/28 11:22:25;;;;;;;10.20;5.10;;;;;;;19.09;60.37;99910.89;223693;1236;139668;-71
2022/10/28 11:27:40;;;;;;;8.70;5.00;;;;;;;19.14;60.12;99905.91;224360;1230;139139;-70
2022/10/28 11:33:06;;;;;;;11.10;4.60;;;;;;;19.17;59.96;99899.92;224105;1235;138946;-71
2022/10/28 11:38:46;;;;;;;10.90;4.60;;;;;;;19.23;59.73;99901.07;224075;1226;139173;-69
2022/10/28 11:43:56;;;;;;;8.10;4.10;;;;;;;19.29;59.45;99900.52;224048;1236;140036;-71
2022/10/28 11:49:44;;;;;;;8.40;4.40;;;;;;;19.41;59.35;99895.16;224190;1233;141225;-70
2022/10/28 11:54:53;;;;;;;8.10;3.80;;;;;;;19.62;59.15;99888.95;223957;1236;139843;-72
2022/10/28 12:00:45;;;;;;;7.70;3.70;;;;;;;19.77;58.86;99886.51;224222;1236;138921;-72
2022/10/28 12:06:21;;;;;;;6.90;3.40;;;;;;;19.94;58.51;99877.86;222819;1239;139783;-72
2022/10/28 12:11:35;;;;;;;10.70;3.90;;;;;;;20.10;58.14;99875.20;223431;1235;138804;-69
2022/10/28 12:16:52;;;;;;;7.20;3.60;;;;;;;20.25;57.78;99865.95;223872;1236;139907;-70
2022/10/28 12:22:32;;;;;;;6.90;3.50;;;;;;;20.34;57.26;99860.44;223854;1237;139699;-70
2022/10/28 12:27:42;;;;;;;6.00;3.30;;;;;;;20.37;56.75;99858.36;224457;1236;139032;-69
2022/10/28 12:32:51;;;;;;;6.30;3.20;;;;;;;20.39;56.37;99854.27;224255;1236;139092;-69
2022/10/28 12:38:14;;;;;;;6.70;3.80;;;;;;;20.49;56.32;99849.77;224743;1233;139452;-71
2022/10/28 12:43:28;;;;;;;8.60;3.40;;;;;;;20.58;55.98;99845.36;224489;1233;138637;-70
2022/10/28 12:48:44;;;;;;;7.40;3.70;;;;;;;20.65;55.77;99841.44;224801;1233;139422;-67
2022/10/28 12:53:54;;;;;;;8.30;3.50;;;;;;;20.71;55.48;99837.86;224613;1233;139615;-69
2022/10/28 12:59:22;;;;;;;11.30;4.00;;;;;;;20.72;55.19;99838.69;224602;1233;139883;-69
2022/10/28 13:04:27;;;;;;;8.30;3.80;;;;;;;20.70;55.00;99839.71;224031;1235;138891;-66
2022/10/28 13:10:09;;;;;;;10.10;4.20;;;;;;;20.71;55.02;99835.35;223911;1235;143555;-68
2022/10/28 13:15:24;;;;;;;8.00;3.90;;;;;;;20.88;55.07;99831.74;224182;1227;139727;-69
2022/10/28 13:21:13;;;;;;;24.50;15.00;;;;;;;21.07;54.98;99828.37;224287;1236;138624;-70
2022/10/28 13:26:16;;;;;;;7.30;3.90;;;;;;;21.13;54.43;99828.38;223988;1237;140250;-70
2022/10/28 13:31:20;;;;;;;8.70;4.20;;;;;;;21.10;54.05;99827.98;224121;1235;138862;-71
2022/10/28 13:36:31;;;;;;;6.60;3.70;;;;;;;21.05;53.69;99823.92;224207;1235;138878;-70
2022/10/28 13:41:39;;;;;;;16.70;4.00;;;;;;;20.98;53.60;99818.70;224403;1226;138979;-67
2022/10/28 13:46:58;;;;;;;6.40;3.90;;;;;;;20.94;53.39;99818.23;224276;1234;138804;-71
2022/10/28 13:52:10;;;;;;;7.40;4.00;;;;;;;20.90;53.35;99818.05;224152;1229;139394;-71
2022/10/28 13:57:19;;;;;;;8.50;4.30;;;;;;;20.86;53.32;99819.31;224379;1232;139023;-68
2022/10/28 14:02:26;;;;;;;9.70;4.50;;;;;;;20.84;53.31;99817.95;224302;1236;138724;-70
2022/10/28 14:07:58;;;;;;;10.40;4.10;;;;;;;20.79;53.29;99812.94;224273;1236;139120;-70
2022/10/28 14:13:20;;;;;;;9.80;4.60;;;;;;;20.73;53.35;99813.71;224300;1236;138882;-69
2022/10/28 14:18:24;;;;;;;17.50;6.50;;;;;;;20.67;53.37;99812.58;224020;1228;139300;-72
2022/10/28 14:31:13;;;;;;;11.70;5.30;;;;;;;20.63;53.51;99815.33;223799;1236;139059;-69
2022/10/28 14:36:16;;;;;;;9.00;4.70;;;;;;;20.60;53.60;99810.92;223884;1237;139051;-71
2022/10/28 14:41:58;;;;;;;8.30;4.70;;;;;;;20.57;53.63;99807.75;224193;1235;138835;-70
2022/10/28 14:47:26;;;;;;;9.90;4.90;;;;;;;20.53;53.73;99802.11;223939;1237;139232;-66
2022/10/28 14:52:35;;;;;;;12.70;5.20;;;;;;;20.49;53.81;99805.16;224103;1235;139487;-69
2022/10/28 14:57:38;;;;;;;14.70;5.80;;;;;;;20.46;53.92;99805.85;224032;1236;139478;-70
2022/10/28 15:02:42;;;;;;;12.30;6.00;;;;;;;20.43;54.17;99807.55;224312;1236;138830;-70
2022/10/28 15:07:49;;;;;;;10.60;6.60;;;;;;;20.40;54.20;99804.18;224291;1235;139265;-71
2022/10/28 15:12:55;;;;;;;12.80;5.90;;;;;;;20.36;54.51;99803.49;224049;1236;139162;-69
2022/10/28 15:18:01;;;;;;;11.20;6.00;;;;;;;20.31;54.59;99798.73;224315;1234;140281;-69
2022/10/28 15:23:13;;;;;;;10.70;6.20;;;;;;;20.26;54.77;99801.33;224111;1234;139848;-71
2022/10/28 15:28:16;;;;;;;15.20;6.70;;;;;;;20.23;54.99;99803.23;224089;1237;140052;-70
2022/10/28 15:33:27;;;;;;;11.60;5.90;;;;;;;20.20;55.08;99803.48;223965;1237;139274;-73
2022/10/28 15:38:44;;;;;;;14.30;6.30;;;;;;;20.13;55.21;99803.44;224188;1236;139891;-72
2022/10/28 15:44:20;;;;;;;150.50;102.50;;;;;;;19.99;55.31;99799.23;223713;1235;139378;-69
2022/10/28 15:49:39;;;;;;;19.50;10.90;;;;;;;19.87;55.60;99794.75;223785;1237;140178;-71
2022/10/28 15:54:57;;;;;;;15.90;7.60;;;;;;;19.72;55.69;99792.86;223825;1229;139866;-68
2022/10/28 16:00:22;;;;;;;31.80;8.70;;;;;;;19.55;55.95;99793.54;223882;1233;139014;-67
2022/10/28 16:05:31;;;;;;;17.70;8.00;;;;;;;19.43;56.32;99793.77;224164;1236;140719;-68
2022/10/28 16:10:47;;;;;;;16.80;7.40;;;;;;;19.39;56.64;99795.13;224055;1237;139677;-70
2022/10/28 16:16:11;;;;;;;13.20;7.90;;;;;;;19.33;56.72;99797.13;224121;1235;138944;-70
2022/10/28 16:21:21;;;;;;;18.70;7.90;;;;;;;19.30;57.14;99797.01;224184;1226;139783;-69
2022/10/28 16:26:26;;;;;;;18.20;7.50;;;;;;;19.28;57.22;99803.80;224277;1230;139457;-70
2022/10/28 16:31:40;;;;;;;19.00;7.70;;;;;;;19.16;57.12;99802.16;224051;1227;139992;-69
2022/10/28 16:36:44;;;;;;;20.30;7.90;;;;;;;18.96;57.26;99804.96;224212;1235;139932;-68
2022/10/28 16:41:48;;;;;;;24.80;8.50;;;;;;;18.82;57.78;99809.31;224022;1236;139123;-70
2022/10/28 16:46:52;;;;;;;22.10;8.00;;;;;;;18.81;58.15;99813.36;224128;1236;141039;-71
2022/10/28 16:51:55;;;;;;;21.00;8.60;;;;;;;18.89;58.50;99808.22;224091;1236;139669;-69
2022/10/28 16:57:01;;;;;;;18.40;9.70;;;;;;;18.98;58.58;99803.55;224302;1236;139348;-65
2022/10/28 17:02:34;;;;;;;18.90;8.90;;;;;;;18.96;58.64;99810.90;224277;1235;140270;-66
2022/10/28 17:07:41;;;;;;;20.30;8.80;;;;;;;18.97;58.78;99816.22;223971;1240;139925;-67
2022/10/28 17:12:46;;;;;;;18.20;9.30;;;;;;;18.93;58.77;99816.84;223978;1230;139418;-69
2022/10/28 17:17:53;;;;;;;22.60;10.30;;;;;;;18.90;59.01;99813.49;224101;1236;139280;-70
2022/10/28 17:23:16;;;;;;;20.90;9.90;;;;;;;18.84;59.03;99815.27;224181;1235;139604;-66
2022/10/28 17:28:36;;;;;;;17.30;10.50;;;;;;;18.79;59.07;99818.11;224052;1236;139397;-70
2022/10/28 17:34:00;;;;;;;18.10;10.60;;;;;;;18.72;59.31;99815.58;224090;1236;140364;-71
2022/10/28 17:39:16;;;;;;;24.60;11.00;;;;;;;18.62;59.29;99818.21;224307;1234;138926;-70
2022/10/28 17:44:27;;;;;;;19.40;9.80;;;;;;;18.49;59.24;99820.92;224385;1227;139609;-71
2022/10/28 17:49:33;;;;;;;22.80;10.30;;;;;;;18.37;59.29;99819.54;223947;1236;140028;-69
2022/10/28 17:54:37;;;;;;;23.20;10.50;;;;;;;18.35;59.69;99813.98;224088;1235;139876;-73
2022/10/28 17:59:40;;;;;;;22.60;11.00;;;;;;;18.36;59.95;99810.23;223729;1235;139103;-74
2022/10/28 18:04:43;;;;;;;22.40;11.10;;;;;;;18.38;60.10;99803.95;224089;1237;139290;-69
2022/10/28 18:09:47;;;;;;;21.10;10.90;;;;;;;18.39;60.23;99806.63;224101;1235;140124;-69
2022/10/28 18:14:50;;;;;;;26.50;11.60;;;;;;;18.34;60.09;99799.80;224173;1235;139175;-68
2022/10/28 18:19:56;;;;;;;18.50;10.90;;;;;;;18.22;59.95;99798.44;224112;1240;139304;-71
2022/10/28 18:25:03;;;;;;;21.80;11.30;;;;;;;18.07;60.13;99785.09;223984;1236;139573;-70
2022/10/28 18:30:09;;;;;;;26.00;12.30;;;;;;;17.98;60.42;99789.31;223749;1235;139219;-70
2022/10/28 18:35:12;;;;;;;28.50;13.30;;;;;;;17.87;60.60;99781.72;224031;1234;140123;-73
2022/10/28 18:40:16;;;;;;;25.60;14.00;;;;;;;17.84;60.97;99785.05;224060;1236;139794;-70
2022/10/28 18:45:21;;;;;;;33.10;21.50;;;;;;;17.84;61.17;99783.95;224396;1235;139556;-70
2022/10/28 18:50:24;;;;;;;28.30;16.60;;;;;;;17.87;61.48;99775.98;224278;1236;139387;-71
2022/10/28 18:55:28;;;;;;;30.00;15.70;;;;;;;17.86;61.47;99771.06;223925;1235;139380;-69
2022/10/28 19:00:33;;;;;;;30.40;15.40;;;;;;;17.77;61.46;99767.78;224016;1233;139304;-72
2022/10/28 19:05:36;;;;;;;26.60;15.00;;;;;;;17.70;61.35;99771.95;223966;1236;140187;-68
2022/10/28 19:10:41;;;;;;;27.90;14.60;;;;;;;17.61;61.50;99771.36;224005;1235;139770;-70
2022/10/28 19:15:46;;;;;;;24.40;14.60;;;;;;;17.49;61.41;99775.73;223929;1234;139381;-71
2022/10/28 19:20:51;;;;;;;25.50;14.70;;;;;;;17.40;61.56;99772.54;223886;1236;139884;-72
2022/10/28 19:25:58;;;;;;;30.90;14.50;;;;;;;17.38;61.80;99774.48;223746;1235;140400;-67
2022/10/28 19:31:03;;;;;;;;;;;;;;;17.37;62.04;99781.21;224091;1237;141931;-71
2022/10/28 19:36:22;;;;;;;43.00;26.20;;;;;;;17.36;62.30;99780.05;224081;1237;125547;-68
2022/10/28 19:41:28;;;;;;;23.90;15.30;;;;;;;17.45;63.07;99783.38;224036;1237;139085;-68
2022/10/28 19:46:34;;;;;;;28.80;16.30;;;;;;;17.42;62.36;99781.70;223788;1237;139954;-71
2022/10/28 19:51:39;;;;;;;;;;;;;;;17.31;62.08;99783.08;223858;1236;140368;-71
2022/10/28 19:56:44;;;;;;;30.60;17.00;;;;;;;17.18;62.12;99783.36;223913;1242;125529;-69
2022/10/28 20:01:48;;;;;;;26.50;16.50;;;;;;;17.08;62.28;99787.77;224018;1236;139262;-69
2022/10/28 20:06:53;;;;;;;53.30;33.30;;;;;;;16.93;62.44;99795.69;223969;1240;140176;-67
2022/10/28 20:11:56;;;;;;;27.30;15.90;;;;;;;16.89;62.46;99793.38;223959;1236;139927;-68
2022/10/28 20:17:00;;;;;;;24.90;15.90;;;;;;;16.90;62.66;99791.67;223992;1236;140288;-67
2022/10/28 20:22:10;;;;;;;52.30;31.40;;;;;;;16.90;62.92;99796.51;224080;1237;139578;-69
2022/10/28 20:27:14;;;;;;;27.80;17.90;;;;;;;16.89;62.91;99794.06;224144;1236;139392;-67
2022/10/28 20:32:21;;;;;;;27.00;17.30;;;;;;;16.84;62.92;99797.17;223843;1238;139351;-66
2022/10/28 20:37:24;;;;;;;28.80;17.60;;;;;;;16.75;62.94;99795.98;224020;1234;139825;-67
2022/10/28 20:42:28;;;;;;;32.00;18.40;;;;;;;16.64;62.78;99796.83;224054;1237;139852;-66
2022/10/28 20:47:32;;;;;;;26.30;17.40;;;;;;;16.50;62.96;99812.35;224095;1240;139153;-68
2022/10/28 20:52:35;;;;;;;24.60;16.30;;;;;;;16.40;62.85;99812.04;224093;1240;140472;-65
2022/10/28 20:57:42;;;;;;;28.20;17.90;;;;;;;16.37;63.29;99810.98;224263;1237;139859;-67
2022/10/28 21:02:46;;;;;;;25.50;18.50;;;;;;;16.34;63.33;99809.03;224231;1234;139430;-66
2022/10/28 21:07:50;;;;;;;25.80;18.10;;;;;;;16.30;63.29;99810.55;223751;1240;139869;-67
2022/10/28 21:12:54;;;;;;;30.30;18.40;;;;;;;16.23;63.29;99812.52;224122;1240;139544;-67
2022/10/28 21:17:58;;;;;;;26.40;18.00;;;;;;;16.12;63.10;99808.48;223885;1237;139387;-66
2022/10/28 21:23:04;;;;;;;27.50;17.70;;;;;;;16.00;63.37;99805.60;223895;1237;140538;-67
2022/10/28 21:28:08;;;;;;;25.30;18.00;;;;;;;15.95;63.59;99800.59;223981;1233;140025;-68
2022/10/28 21:33:12;;;;;;;25.50;17.60;;;;;;;15.94;63.72;99795.30;224149;1237;139891;-67
2022/10/28 21:38:16;;;;;;;25.50;19.30;;;;;;;15.92;63.76;99787.23;223790;1233;141403;-65
2022/10/28 21:43:20;;;;;;;33.00;18.50;;;;;;;15.87;63.88;99785.10;224241;1234;139605;-66
2022/10/28 21:48:26;;;;;;;28.70;18.90;;;;;;;15.79;64.00;99782.62;223966;1240;139490;-66
2022/10/28 21:53:32;;;;;;;31.20;18.80;;;;;;;15.71;63.99;99780.19;224119;1233;139274;-65
2022/10/28 21:58:37;;;;;;;30.40;17.80;;;;;;;15.65;64.03;99781.10;223900;1237;140115;-66
2022/10/28 22:03:41;;;;;;;31.20;18.80;;;;;;;15.61;64.18;99779.20;224262;1237;139828;-67
2022/10/28 22:08:45;;;;;;;30.30;18.80;;;;;;;15.57;64.28;99773.96;224414;1240;139910;-67
2022/10/28 22:14:02;;;;;;;28.30;19.10;;;;;;;15.52;64.38;99775.20;224013;1240;141163;-67
2022/10/28 22:19:09;;;;;;;29.20;20.00;;;;;;;15.42;64.23;99773.92;224385;1234;139494;-67
2022/10/28 22:24:14;;;;;;;28.80;19.80;;;;;;;15.33;64.45;99766.19;223994;1240;139208;-67
2022/10/28 22:29:18;;;;;;;31.10;19.30;;;;;;;15.21;64.19;99764.00;224182;1235;139889;-66
2022/10/28 22:34:22;;;;;;;28.90;19.00;;;;;;;15.11;64.27;99763.55;224022;1236;140182;-67
2022/10/28 22:39:25;;;;;;;28.80;18.80;;;;;;;15.14;64.50;99759.66;224184;1237;139826;-65
2022/10/28 22:44:28;;;;;;;26.30;19.10;;;;;;;15.18;64.79;99758.80;224210;1236;139721;-66
2022/10/28 22:49:33;;;;;;;26.30;18.90;;;;;;;15.14;64.53;99748.02;224069;1236;138813;-67
2022/10/28 22:54:37;;;;;;;29.30;19.70;;;;;;;15.10;64.70;99750.45;224225;1236;139539;-67
2022/10/28 22:59:40;;;;;;;27.00;20.00;;;;;;;15.05;64.63;99750.41;224091;1236;138917;-67
2022/10/28 23:04:44;;;;;;;27.30;19.60;;;;;;;15.01;64.75;99745.88;224069;1237;140093;-66
2022/10/28 23:09:47;;;;;;;25.20;17.60;;;;;;;14.95;64.59;99745.03;224073;1235;139461;-65
2022/10/28 23:14:51;;;;;;;22.70;17.40;;;;;;;14.89;64.57;99749.36;224124;1237;140328;-64
2022/10/28 23:19:54;;;;;;;27.20;17.60;;;;;;;14.91;64.94;99753.02;224104;1237;237736;-65
2022/10/28 23:24:57;;;;;;;27.50;19.10;;;;;;;14.93;65.00;99755.20;223869;1233;138978;-63